Time;durP1;ratioP1;P1;durP2;ratioP2;P2;SDS_P1;SDS_P2;PMS_P1;PMS_P2;Temp;Humidity;BMP_temperature;BMP_pressure;BME280_temperature;BME280_humidity;BME280_pressure;Samples;Min_cycle;Max_cycle;Signal;HPM_P1;HPM_P2
2022/06/03 00:02:42;;;;;;;;;;;;;;;21.52;64.46;100921.78;7405262;19;1751;-58
2022/06/03 00:05:25;;;;;;;;;;;;;;;21.50;64.33;100939.06;7406954;19;2679;-58
2022/06/03 00:08:06;;;;;;;;;;;;;;;21.49;64.22;100937.38;7406822;19;2505;-58
2022/06/03 00:10:45;;;;;;;;;;;;;;;21.49;64.39;100932.00;7406807;19;1750;-58
2022/06/03 00:13:19;;;;;;;;;;;;;;;21.54;64.26;100930.56;7405930;19;1633;-58
2022/06/03 00:15:59;;;;;;;;;;;;;;;21.55;63.86;100926.88;7406237;19;1668;-58
2022/06/03 00:18:48;;;;;;;;;;;;;;;21.55;64.11;100942.19;7405756;19;1861;-58
2022/06/03 00:21:22;;;;;;;;;;;;;;;21.52;64.10;100924.47;7406014;19;1557;-58
2022/06/03 00:24:01;;;;;;;;;;;;;;;21.63;63.67;100928.84;7402950;19;1451;-58
2022/06/03 00:26:44;;;;;;;;;;;;;;;21.58;63.76;100921.19;7405521;19;1346;-58
2022/06/03 00:29:20;;;;;;;;;;;;;;;21.39;64.04;100935.56;7405819;19;1558;-58
2022/06/03 00:31:58;;;;;;;;;;;;;;;21.30;64.04;100922.13;7405918;19;1528;-58
2022/06/03 00:34:35;;;;;;;;;;;;;;;21.15;64.50;100922.59;7405295;19;1312;-58
2022/06/03 00:37:13;;;;;;;;;;;;;;;21.13;64.49;100926.41;7407457;19;968;-58
2022/06/03 00:39:50;;;;;;;;;;;;;;;21.13;64.35;100918.34;7402697;19;1852;-58
2022/06/03 00:42:28;;;;;;;;;;;;;;;20.97;64.72;100917.13;7404390;19;1366;-58
2022/06/03 00:45:04;;;;;;;;;;;;;;;21.12;64.55;100927.41;7404942;19;1446;-57
2022/06/03 00:47:43;;;;;;;;;;;;;;;21.16;64.25;100934.19;7404935;19;1520;-58
2022/06/03 00:50:32;;;;;;;;;;;;;;;21.27;64.19;100934.03;7403182;19;1525;-58
2022/06/03 00:53:13;;;;;;;;;;;;;;;21.30;63.67;100919.44;7404801;19;1961;-58
2022/06/03 00:55:53;;;;;;;;;;;;;;;21.38;63.81;100933.84;7405518;19;1485;-58
2022/06/03 00:58:40;;;;;;;;;;;;;;;21.33;63.51;100933.44;7401974;19;1842;-58
2022/06/03 01:01:11;;;;;;;;;;;;;;;21.00;64.32;100921.38;7401839;19;1412;-58
2022/06/03 01:03:58;;;;;;;;;;;;;;;21.03;63.93;100924.63;7404666;19;1308;-58
2022/06/03 01:06:31;;;;;;;;;;;;;;;21.25;63.62;100930.66;7405843;19;1520;-58
2022/06/03 01:09:11;;;;;;;;;;;;;;;21.29;63.39;100920.41;7404932;19;1426;-58
2022/06/03 01:11:51;;;;;;;;;;;;;;;21.29;63.39;100925.81;7403850;19;1295;-58
2022/06/03 01:14:27;;;;;;;;;;;;;;;21.40;63.22;100939.91;7404760;19;1562;-58
2022/06/03 01:17:04;;;;;;;;;;;;;;;21.32;63.02;100934.44;7404917;19;1516;-58
2022/06/03 01:19:40;;;;;;;;;;;;;;;21.36;63.33;100938.53;7403119;19;1862;-58
2022/06/03 01:22:17;;;;;;;;;;;;;;;21.44;62.95;100937.81;7405375;19;964;-58
2022/06/03 01:25:07;;;;;;;;;;;;;;;21.41;62.79;100949.69;7404476;19;1548;-58
2022/06/03 01:27:47;;;;;;;;;;;;;;;21.30;63.15;100939.09;7404567;19;1494;-58
2022/06/03 01:30:24;;;;;;;;;;;;;;;21.37;62.96;100934.00;7403310;19;1344;-58
2022/06/03 01:33:16;;;;;;;;;;;;;;;21.38;62.97;100930.31;7404330;19;1515;-58
2022/06/03 01:36:02;;;;;;;;;;;;;;;21.34;63.05;100916.31;7402248;19;1608;-58
2022/06/03 01:38:43;;;;;;;;;;;;;;;21.24;63.21;100928.94;7404105;19;1841;-58
2022/06/03 01:41:32;;;;;;;;;;;;;;;21.23;62.79;100921.88;7403886;19;1395;-58
2022/06/03 01:44:21;;;;;;;;;;;;;;;21.18;62.86;100925.00;7404182;19;1359;-58
2022/06/03 01:47:05;;;;;;;;;;;;;;;21.22;62.81;100917.47;7403130;19;1651;-58
2022/06/03 01:49:41;;;;;;;;;;;;;;;21.33;62.53;100936.16;7403310;19;1297;-58
2022/06/03 01:52:30;;;;;;;;;;;;;;;21.30;62.58;100938.28;7404168;19;1044;-58
2022/06/03 01:55:20;;;;;;;;;;;;;;;21.29;62.70;100955.38;7402571;19;1927;-58
2022/06/03 01:58:04;;;;;;;;;;;;;;;21.30;62.79;100938.28;7403984;19;1450;-58
2022/06/03 02:00:37;;;;;;;;;;;;;;;20.92;62.15;100892.50;7401148;19;1383;-58
2022/06/03 02:03:16;;;;;;;;;;;;;;;21.36;62.25;100940.38;7406970;19;1475;-58
2022/06/03 02:06:08;;;;;;;;;;;;;;;21.31;62.25;100946.19;7411410;19;1363;-58
2022/06/03 02:08:51;;;;;;;;;;;;;;;21.22;62.07;100979.34;7406150;19;1651;-58
2022/06/03 02:11:28;;;;;;;;;;;;;;;21.06;62.71;100964.63;7411081;19;1433;-58
2022/06/03 02:14:12;;;;;;;;;;;;;;;20.92;63.39;101004.56;7411039;19;1362;-58
2022/06/03 02:16:58;;;;;;;;;;;;;;;20.92;64.03;100977.69;7410832;19;1419;-58
2022/06/03 02:19:42;;;;;;;;;;;;;;;20.76;64.34;101011.38;7409033;19;1894;-58
2022/06/03 02:22:25;;;;;;;;;;;;;;;20.82;64.85;100993.81;7411135;19;975;-58
2022/06/03 02:25:15;;;;;;;;;;;;;;;20.71;64.93;100993.97;7409212;19;2439;-58
2022/06/03 02:28:05;;;;;;;;;;;;;;;20.74;64.75;100996.38;7409577;19;1414;-58
2022/06/03 02:30:43;;;;;;;;;;;;;;;20.83;64.50;101003.56;7410117;19;1473;-58
2022/06/03 02:33:25;;;;;;;;;;;;;;;20.94;64.26;101008.81;7410608;19;1552;-58
2022/06/03 02:36:08;;;;;;;;;;;;;;;20.96;63.59;101022.97;7409791;19;1391;-58
2022/06/03 02:38:51;;;;;;;;;;;;;;;21.06;63.14;101048.00;7409352;19;1864;-58
2022/06/03 02:41:31;;;;;;;;;;;;;;;20.97;63.32;101029.19;7410409;19;1536;-58
2022/06/03 02:44:16;;;;;;;;;;;;;;;20.93;63.20;101030.44;7410426;19;1646;-58
2022/06/03 02:47:01;;;;;;;;;;;;;;;20.80;63.85;101044.19;7409820;19;1423;-58
2022/06/03 02:49:47;;;;;;;;;;;;;;;20.94;62.91;101053.66;7409531;19;1517;-58
2022/06/03 02:52:32;;;;;;;;;;;;;;;21.10;62.92;101035.13;7410183;19;1158;-58
2022/06/03 02:55:25;;;;;;;;;;;;;;;21.13;62.58;101052.81;7408041;19;1411;-58
2022/06/03 02:58:06;;;;;;;;;;;;;;;21.17;62.50;101051.53;7409757;19;1344;-58
2022/06/03 03:00:44;;;;;;;;;;;;;;;21.13;62.65;101058.19;7407845;19;1845;-58
2022/06/03 03:03:36;;;;;;;;;;;;;;;20.98;62.96;101066.69;7408943;19;1427;-58
2022/06/03 03:06:22;;;;;;;;;;;;;;;21.11;62.67;101062.84;7405200;19;1356;-58
2022/06/03 03:09:04;;;;;;;;;;;;;;;21.15;62.28;101062.44;7409223;19;1568;-58
2022/06/03 03:11:48;;;;;;;;;;;;;;;21.12;62.86;101054.66;7408499;19;1789;-58
2022/06/03 03:14:31;;;;;;;;;;;;;;;20.97;63.13;101062.31;7408309;19;1524;-58
2022/06/03 03:17:10;;;;;;;;;;;;;;;20.97;63.33;101086.50;7406283;19;1646;-58
2022/06/03 03:19:48;;;;;;;;;;;;;;;21.03;62.95;101067.13;7407040;19;1850;-58
2022/06/03 03:22:27;;;;;;;;;;;;;;;21.02;63.23;101069.94;7408201;19;1309;-58
2022/06/03 03:25:11;;;;;;;;;;;;;;;21.10;63.04;101083.53;7406914;19;1761;-58
2022/06/03 03:27:57;;;;;;;;;;;;;;;21.08;63.30;101085.50;7407374;19;1378;-58
2022/06/03 03:30:31;;;;;;;;;;;;;;;21.05;63.52;101086.66;7407625;19;1426;-58
2022/06/03 03:33:12;;;;;;;;;;;;;;;21.06;63.45;101096.41;7407354;19;1616;-58
2022/06/03 03:35:55;;;;;;;;;;;;;;;21.09;63.31;101097.97;7407739;19;1603;-58
2022/06/03 03:38:38;;;;;;;;;;;;;;;21.12;63.56;101113.81;7408058;19;1341;-58
2022/06/03 03:41:30;;;;;;;;;;;;;;;21.06;63.78;101109.84;7408216;19;1355;-58
2022/06/03 03:44:16;;;;;;;;;;;;;;;21.22;63.17;101103.06;7407948;19;1537;-58
2022/06/03 03:47:10;;;;;;;;;;;;;;;21.20;63.16;101100.50;7407654;19;1938;-58
2022/06/03 03:50:00;;;;;;;;;;;;;;;21.25;63.07;101110.84;7406838;19;1347;-58
2022/06/03 03:52:38;;;;;;;;;;;;;;;21.39;62.78;101110.41;7408563;19;951;-58
2022/06/03 03:55:24;;;;;;;;;;;;;;;21.43;62.57;101117.25;7406066;19;1575;-58
2022/06/03 03:58:02;;;;;;;;;;;;;;;21.53;62.82;101127.16;7401907;19;1636;-58
2022/06/03 04:01:04;;;;;;;;;;;;;;;21.48;62.55;101118.66;7405376;19;1861;-58
2022/06/03 04:04:00;;;;;;;;;;;;;;;21.30;63.42;101122.03;7406860;19;1546;-58
2022/06/03 04:06:47;;;;;;;;;;;;;;;21.46;63.14;101137.63;7403104;19;1644;-58
2022/06/03 04:09:30;;;;;;;;;;;;;;;21.51;63.28;101118.38;7406635;19;1546;-58
2022/06/03 04:12:10;;;;;;;;;;;;;;;21.54;63.44;101128.84;7402675;19;1577;-58
2022/06/03 04:14:56;;;;;;;;;;;;;;;21.60;63.65;101139.03;7404848;19;1349;-58
2022/06/03 04:17:45;;;;;;;;;;;;;;;21.42;64.43;101110.13;7403194;19;1330;-58
2022/06/03 04:20:40;;;;;;;;;;;;;;;21.39;64.60;101155.31;7401825;19;1845;-58
2022/06/03 04:23:17;;;;;;;;;;;;;;;21.55;64.33;101142.16;7404227;19;1328;-58
2022/06/03 04:26:00;;;;;;;;;;;;;;;21.56;64.42;101140.31;7404573;19;1714;-58
2022/06/03 04:28:46;;;;;;;;;;;;;;;21.56;64.89;101151.91;7406313;19;1712;-58
2022/06/03 04:31:29;;;;;;;;;;;;;;;21.58;64.90;101143.72;7406518;19;1636;-59
2022/06/03 04:34:26;;;;;;;;;;;;;;;21.61;65.19;101141.59;7402651;19;1384;-59
2022/06/03 04:37:15;;;;;;;;;;;;;;;21.75;64.61;101163.66;7406615;19;1424;-59
2022/06/03 04:40:10;;;;;;;;;;;;;;;21.78;64.69;101137.28;7401140;19;1855;-58
2022/06/03 04:42:59;;;;;;;;;;;;;;;21.73;65.65;101160.28;7405739;19;1572;-58
2022/06/03 04:45:40;;;;;;;;;;;;;;;21.89;65.28;101148.91;7404927;19;1573;-58
2022/06/03 04:48:35;;;;;;;;;;;;;;;21.80;66.19;101167.59;7405812;19;1536;-58
2022/06/03 04:51:21;;;;;;;;;;;;;;;21.84;65.33;101174.44;7400701;19;1608;-58
2022/06/03 04:54:09;;;;;;;;;;;;;;;21.89;65.88;101165.91;7400844;19;1897;-58
2022/06/03 04:57:04;;;;;;;;;;;;;;;21.99;65.36;101187.44;7405114;19;1305;-58
2022/06/03 04:59:53;;;;;;;;;;;;;;;22.02;65.40;101173.66;7404678;19;1849;-58
2022/06/03 05:02:36;;;;;;;;;;;;;;;22.20;64.47;101174.63;7403347;19;1637;-58
2022/06/03 05:05:19;;;;;;;;;;;;;;;22.19;64.84;101199.84;7404772;19;1639;-57
2022/06/03 05:08:02;;;;;;;;;;;;;;;22.29;64.40;101182.84;7403998;19;1808;-58
2022/06/03 05:10:48;;;;;;;;;;;;;;;22.35;64.09;101176.88;7400537;19;1493;-58
2022/06/03 05:13:33;;;;;;;;;;;;;;;22.43;64.12;101174.28;7405515;19;1522;-58
2022/06/03 05:16:14;;;;;;;;;;;;;;;22.43;63.98;101176.97;7403731;19;1503;-59
2022/06/03 05:19:13;;;;;;;;;;;;;;;22.54;63.32;101182.19;7404504;19;1702;-58
2022/06/03 05:21:56;;;;;;;;;;;;;;;22.55;63.30;101167.69;7404476;19;1473;-59
2022/06/03 05:24:39;;;;;;;;;;;;;;;22.60;63.33;101170.81;7401956;19;1738;-62
2022/06/03 05:27:19;;;;;;;;;;;;;;;22.64;63.07;101161.41;7404639;19;1464;-62
2022/06/03 05:30:02;;;;;;;;;;;;;;;22.68;63.23;101178.16;7404214;19;1467;-58
2022/06/03 05:32:51;;;;;;;;;;;;;;;22.62;63.44;101167.94;7403327;19;1517;-58
2022/06/03 05:35:36;;;;;;;;;;;;;;;22.77;63.32;101179.91;7402968;19;1347;-61
2022/06/03 05:38:14;;;;;;;;;;;;;;;22.78;64.14;101180.75;7412538;19;1553;-60
2022/06/03 05:40:51;;;;;;;;;;;;;;;22.77;63.37;101176.38;7409708;19;1857;-58
2022/06/03 05:43:31;;;;;;;;;;;;;;;22.79;63.83;101174.38;7411981;19;1478;-58
2022/06/03 05:46:10;;;;;;;;;;;;;;;22.92;63.48;101177.56;7411447;19;1550;-60
2022/06/03 05:48:48;;;;;;;;;;;;;;;22.87;66.36;101179.88;7410389;19;1499;-58
2022/06/03 05:51:24;;;;;;;;;;;;;;;21.74;67.60;101192.41;7410574;19;1495;-58
2022/06/03 05:53:58;;;;;;;;;;;;;;;20.82;66.82;101192.72;7408341;19;1638;-58
2022/06/03 05:56:35;;;;;;;;;;;;;;;20.15;66.35;101196.78;7411925;19;980;-58
2022/06/03 05:59:10;;;;;;;;;;;;;;;19.79;65.32;101178.34;7409699;19;1697;-58
2022/06/03 06:01:46;;;;;;;;;;;;;;;19.53;64.19;101203.81;7407326;19;1857;-58
2022/06/03 06:04:18;;;;;;;;;;;;;;;19.39;63.31;101181.66;7410583;19;1533;-58
2022/06/03 06:06:55;;;;;;;;;;;;;;;19.28;62.25;101198.66;7409447;19;1372;-58
2022/06/03 06:09:31;;;;;;;;;;;;;;;19.19;61.54;101186.00;7409753;19;1548;-58
2022/06/03 06:12:05;;;;;;;;;;;;;;;18.94;61.08;101187.19;7409245;19;1561;-58
2022/06/03 06:14:36;;;;;;;;;;;;;;;18.87;60.49;101175.25;7411175;19;1340;-58
2022/06/03 06:17:23;;;;;;;;;;;;;;;18.79;60.00;101193.75;7410942;19;1540;-58
2022/06/03 06:19:55;;;;;;;;;;;;;;;18.72;59.67;101198.75;7410216;19;1862;-58
2022/06/03 06:22:34;;;;;;;;;;;;;;;18.65;58.98;101187.66;7411214;19;1011;-58
2022/06/03 06:25:05;;;;;;;;;;;;;;;18.48;59.18;101180.09;7409620;19;1683;-57
2022/06/03 06:27:49;;;;;;;;;;;;;;;18.51;58.47;101166.50;7409879;19;1619;-58
2022/06/03 06:30:31;;;;;;;;;;;;;;;18.43;57.88;101187.66;7410025;19;1532;-58
2022/06/03 06:33:17;;;;;;;;;;;;;;;18.35;57.86;101185.59;7410125;19;1502;-58
2022/06/03 06:35:56;;;;;;;;;;;;;;;18.37;57.36;101196.19;7409826;19;1628;-58
2022/06/03 06:38:30;;;;;;;;;;;;;;;18.33;57.12;101197.41;7411154;19;1020;-57
2022/06/03 06:41:04;;;;;;;;;;;;;;;18.32;56.81;101201.88;7409098;19;1848;-58
2022/06/03 06:43:41;;;;;;;;;;;;;;;18.26;56.90;101208.59;7410547;19;1747;-58
2022/06/03 06:46:12;;;;;;;;;;;;;;;18.16;56.59;101214.78;7410471;19;1749;-58
2022/06/03 06:48:43;;;;;;;;;;;;;;;18.11;56.86;101212.47;7408113;19;1734;-57
2022/06/03 06:51:23;;;;;;;;;;;;;;;18.06;56.74;101218.19;7409474;19;1545;-58
2022/06/03 06:53:58;;;;;;;;;;;;;;;18.03;56.47;101214.88;7405557;19;1515;-58
2022/06/03 06:56:28;;;;;;;;;;;;;;;18.01;56.17;101216.81;7409900;19;971;-58
2022/06/03 06:58:59;;;;;;;;;;;;;;;17.93;55.95;101221.91;7407211;19;1600;-57
2022/06/03 07:01:30;;;;;;;;;;;;;;;17.87;55.80;101218.72;7405926;19;1859;-58
2022/06/03 07:04:00;;;;;;;;;;;;;;;17.89;55.86;101206.09;7408023;19;1301;-58
2022/06/03 07:06:34;;;;;;;;;;;;;;;17.86;55.89;101211.66;7409615;19;1568;-58
2022/06/03 07:09:10;;;;;;;;;;;;;;;17.79;55.70;101207.72;7409591;19;1623;-58
2022/06/03 07:11:48;;;;;;;;;;;;;;;17.77;55.63;101211.50;7409023;19;1611;-57
2022/06/03 07:14:21;;;;;;;;;;;;;;;17.77;55.79;101206.16;7408510;19;1599;-58
2022/06/03 07:19:50;;;;;;;;;;;;;;;17.86;56.55;101219.69;7409413;19;1611;-58
2022/06/03 07:22:22;;;;;;;;;;;;;;;17.93;56.14;101217.41;7409421;19;1031;-58
2022/06/03 07:24:55;;;;;;;;;;;;;;;17.88;56.68;101212.38;7407193;19;1619;-58
2022/06/03 07:27:27;;;;;;;;;;;;;;;17.94;56.38;101210.22;7407573;19;1584;-57
2022/06/03 07:30:00;;;;;;;;;;;;;;;17.85;56.91;101212.63;7406762;19;1449;-58
2022/06/03 07:32:31;;;;;;;;;;;;;;;17.84;56.74;101207.41;7407279;19;1610;-58
2022/06/03 07:35:02;;;;;;;;;;;;;;;17.94;56.90;101228.97;7406454;19;1557;-58
2022/06/03 07:37:34;;;;;;;;;;;;;;;17.90;56.84;101228.34;7409443;19;1020;-58
2022/06/03 07:40:07;;;;;;;;;;;;;;;17.89;56.73;101222.13;7406917;19;1861;-57
2022/06/03 07:42:39;;;;;;;;;;;;;;;17.89;57.13;101211.44;7406532;19;1336;-58
2022/06/03 07:45:21;;;;;;;;;;;;;;;18.04;58.97;101225.44;7407405;19;1784;-58
2022/06/03 07:47:50;;;;;;;;;;;;;;;18.12;59.05;101227.53;7406368;19;1613;-58
2022/06/03 07:50:21;;;;;;;;;;;;;;;18.97;57.09;101229.78;7405708;19;1291;-58
2022/06/03 07:52:54;;;;;;;;;;;;;;;19.92;56.47;101226.47;7407820;19;1660;-58
2022/06/03 07:55:26;;;;;;;;;;;;;;;20.53;54.58;101231.06;7407233;19;1441;-58
2022/06/03 07:57:56;;;;;;;;;;;;;;;20.90;53.33;101217.09;7407524;19;1394;-58
2022/06/03 08:00:25;;;;;;;;;;;;;;;21.16;53.82;101224.66;7403496;19;1857;-59
2022/06/03 08:03:02;;;;;;;;;;;;;;;21.29;53.90;101216.31;7404014;19;1401;-58
2022/06/03 08:05:32;;;;;;;;;;;;;;;21.49;54.18;101231.53;7406193;19;1485;-55
2022/06/03 08:11:01;;;;;;;;;;;;;;;21.65;57.32;101222.91;7408032;19;1685;-59
2022/06/03 08:13:31;;;;;;;;;;;;;;;21.72;55.30;101226.69;7405696;19;1680;-58
2022/06/03 08:16:01;;;;;;;;;;;;;;;21.77;57.10;101232.53;7406427;19;1869;-58
2022/06/03 08:18:32;;;;;;;;;;;;;;;21.83;58.50;101209.56;7406559;19;1580;-59
2022/06/03 08:21:03;;;;;;;;;;;;;;;21.87;59.21;101223.59;7406345;19;1849;-58
2022/06/03 08:23:33;;;;;;;;;;;;;;;21.96;59.02;101231.63;7406618;19;1325;-58
2022/06/03 08:26:06;;;;;;;;;;;;;;;22.08;58.84;101223.41;7406964;19;1276;-59
2022/06/03 08:28:36;;;;;;;;;;;;;;;22.07;59.58;101217.19;7406857;19;1455;-58
2022/06/03 08:31:06;;;;;;;;;;;;;;;22.06;59.11;101215.47;7404832;19;1467;-56
2022/06/03 08:33:42;;;;;;;;;;;;;;;22.11;58.97;101218.59;7404809;19;1580;-58
2022/06/03 08:36:13;;;;;;;;;;;;;;;22.09;59.43;101209.81;7404408;19;1522;-57
2022/06/03 08:38:43;;;;;;;;;;;;;;;22.15;59.57;101209.22;7406240;19;1380;-60
2022/06/03 08:41:21;;;;;;;;;;;;;;;22.18;59.21;101208.94;7403434;19;1857;-59
2022/06/03 08:43:59;;;;;;;;;;;;;;;22.17;59.66;101209.91;7404989;19;1356;-59
2022/06/03 08:46:29;;;;;;;;;;;;;;;22.21;59.52;101197.84;7405428;19;1384;-59
2022/06/03 08:49:01;;;;;;;;;;;;;;;22.31;60.25;101197.03;7405218;19;1280;-58
2022/06/03 08:51:38;;;;;;;;;;;;;;;22.39;60.21;101210.59;7404741;19;1564;-59
2022/06/03 08:54:09;;;;;;;;;;;;;;;22.35;60.29;101204.66;7405512;19;1443;-59
2022/06/03 08:56:41;;;;;;;;;;;;;;;22.33;60.51;101205.81;7405253;19;1375;-58
2022/06/03 08:59:12;;;;;;;;;;;;;;;22.18;62.79;101206.25;7405377;19;1346;-64
2022/06/03 09:01:44;;;;;;;;;;;;;;;22.44;62.76;101209.16;7400860;19;1860;-65
2022/06/03 09:04:16;;;;;;;;;;;;;;;22.51;62.30;101193.25;7403628;19;1473;-68
2022/06/03 09:06:50;;;;;;;;;;;;;;;22.79;62.13;101198.66;7403964;19;1387;-68
2022/06/03 09:09:23;;;;;;;;;;;;;;;22.75;61.88;101216.13;7403423;19;1549;-66
2022/06/03 09:11:57;;;;;;;;;;;;;;;22.55;62.69;101196.50;7403519;19;1553;-66
2022/06/03 09:14:27;;;;;;;;;;;;;;;22.52;62.48;101203.03;7402861;19;1557;-65
2022/06/03 09:16:57;;;;;;;;;;;;;;;22.54;62.41;101200.19;7403942;19;1454;-65
2022/06/03 09:19:27;;;;;;;;;;;;;;;22.52;62.85;101196.78;7402450;19;1313;-66
2022/06/03 09:21:57;;;;;;;;;;;;;;;22.14;65.35;101201.28;7401124;19;1862;-66
2022/06/03 09:24:27;;;;;;;;;;;;;;;21.07;66.24;101194.06;7404079;19;1443;-65
2022/06/03 09:26:59;;;;;;;;;;;;;;;20.18;66.00;101199.22;7404574;19;1525;-66
2022/06/03 09:29:28;;;;;;;;;;;;;;;19.75;65.20;101184.94;7404797;19;1392;-62
2022/06/03 09:31:58;;;;;;;;;;;;;;;19.57;64.46;101197.19;7404102;19;1317;-61
2022/06/03 09:34:34;;;;;;;;;;;;;;;19.42;63.81;101186.78;7403872;19;1351;-61
2022/06/03 09:37:03;;;;;;;;;;;;;;;19.25;63.07;101185.50;7405782;19;1157;-61
2022/06/03 09:39:31;;;;;;;;;;;;;;;19.22;62.39;101198.31;7404202;19;1400;-61
2022/06/03 09:42:03;;;;;;;;;;;;;;;19.22;61.40;101195.66;7401778;19;1949;-61
2022/06/03 09:44:32;;;;;;;;;;;;;;;19.10;61.42;101189.47;7404201;19;1233;-63
2022/06/03 09:47:02;;;;;;;;;;;;;;;19.03;60.84;101170.31;7403334;19;1304;-61
2022/06/03 09:49:32;;;;;;;;;;;;;;;18.98;60.73;101174.34;7404060;19;1572;-62
2022/06/03 09:52:03;;;;;;;;;;;;;;;18.87;60.30;101185.97;7405503;19;953;-62
2022/06/03 09:54:34;;;;;;;;;;;;;;;18.82;60.21;101175.63;7403281;19;1401;-62
2022/06/03 09:57:07;;;;;;;;;;;;;;;18.94;60.14;101176.47;7403140;19;917;-53
2022/06/03 09:59:37;;;;;;;;;;;;;;;18.90;60.23;101166.97;7403941;19;1425;-53
2022/06/03 10:02:07;;;;;;;;;;;;;;;19.05;60.24;101165.69;7402037;19;1860;-53
2022/06/03 10:04:35;;;;;;;;;;;;;;;19.15;60.85;101183.72;7403157;19;1496;-53
2022/06/03 10:07:04;;;;;;;;;;;;;;;19.26;61.13;101181.84;7402864;19;1545;-53
2022/06/03 10:17:41;;;;;;;;;;;;;;;19.32;62.20;101172.44;7404030;19;1399;-53
2022/06/03 10:20:10;;;;;;;;;;;;;;;19.31;62.80;101188.66;7401991;19;1352;-53
2022/06/03 10:22:40;;;;;;;;;;;;;;;19.32;62.81;101214.47;7401878;19;1849;-53
2022/06/03 10:25:09;;;;;;;;;;;;;;;19.32;62.89;101207.31;7409461;19;1652;-53
2022/06/03 10:27:40;;;;;;;;;;;;;;;19.27;63.22;101194.25;7409642;19;1426;-53
2022/06/03 10:30:10;;;;;;;;;;;;;;;19.39;62.96;101202.28;7409474;19;1635;-53
2022/06/03 10:32:38;;;;;;;;;;;;;;;19.35;62.99;101209.72;7409228;19;1614;-53
2022/06/03 10:35:12;;;;;;;;;;;;;;;19.32;63.29;101207.31;7408575;19;1372;-53
2022/06/03 10:37:48;;;;;;;;;;;;;;;19.34;63.36;101205.34;7409296;19;1051;-53
2022/06/03 10:40:17;;;;;;;;;;;;;;;19.30;63.18;101201.22;7409406;19;1628;-53
2022/06/03 10:42:54;;;;;;;;;;;;;;;19.32;63.14;101191.22;7407302;19;1849;-53
2022/06/03 10:45:27;;;;;;;;;;;;;;;19.37;63.41;101209.59;7409402;19;1325;-53
2022/06/03 10:47:56;;;;;;;;;;;;;;;19.27;63.48;101201.47;7409328;19;1571;-53
2022/06/03 10:50:29;;;;;;;;;;;;;;;19.30;63.83;101193.19;7408689;19;1297;-53
2022/06/03 11:01:29;;;;;;;;;;;;;;;19.28;63.69;101206.69;7409484;19;1849;-53
2022/06/03 11:03:58;;;;;;;;;;;;;;;19.29;64.05;101218.28;7407901;19;1531;-53
2022/06/03 11:06:28;;;;;;;;;;;;;;;19.31;63.59;101227.03;7409252;19;1611;-53
2022/06/03 11:08:58;;;;;;;;;;;;;;;19.23;63.89;101195.50;7408930;19;1299;-53
2022/06/03 11:11:42;;;;;;;;;;;;;;;19.23;63.79;101202.69;7408813;19;1300;-53
2022/06/03 11:14:25;;;;;;;;;;;;;;;19.30;64.03;101206.59;7408470;19;1505;-53
2022/06/03 11:17:00;;;;;;;;;;;;;;;19.33;63.92;101192.06;7408778;19;1529;-53
2022/06/03 11:19:31;;;;;;;;;;;;;;;19.25;64.02;101187.31;7408210;19;1317;-53
2022/06/03 11:22:13;;;;;;;;;;;;;;;19.26;64.04;101189.03;7407712;19;1836;-53
2022/06/03 11:24:42;;;;;;;;;;;;;;;19.26;64.02;101187.22;7407899;19;1432;-53
2022/06/03 11:27:14;;;;;;;;;;;;;;;20.09;61.80;101191.94;7406380;19;1386;-53
2022/06/03 11:29:44;;;;;;;;;;;;;;;20.74;60.51;101176.44;7407657;19;1563;-53
2022/06/03 11:32:16;;;;;;;;;;;;;;;21.15;59.93;101183.47;7408679;19;1494;-53
2022/06/03 11:34:46;;;;;;;;;;;;;;;21.40;59.23;101182.06;7407327;19;1467;-54
2022/06/03 11:37:18;;;;;;;;;;;;;;;21.47;59.40;101197.66;7408065;19;1317;-54
2022/06/03 11:39:49;;;;;;;;;;;;;;;21.47;59.58;101184.22;7405783;19;1493;-54
2022/06/03 11:42:19;;;;;;;;;;;;;;;21.56;59.38;101186.06;7405620;19;1864;-54
2022/06/03 11:44:50;;;;;;;;;;;;;;;21.65;59.29;101187.91;7407048;19;1564;-54
2022/06/03 11:47:25;;;;;;;;;;;;;;;21.60;59.62;101171.31;7407770;19;1236;-54
2022/06/03 11:49:53;;;;;;;;;;;;;;;21.65;59.68;101193.28;7407842;19;1408;-54
2022/06/03 11:52:23;;;;;;;;;;;;;;;21.67;59.58;101187.78;7408033;19;1090;-54
2022/06/03 11:54:51;;;;;;;;;;;;;;;21.69;59.18;101183.94;7406827;19;1432;-54
2022/06/03 11:57:20;;;;;;;;;;;;;;;21.73;59.24;101188.03;7405019;19;1557;-54
2022/06/03 11:59:54;;;;;;;;;;;;;;;21.74;59.55;101181.63;7406127;19;1537;-54
2022/06/03 12:02:29;;;;;;;;;;;;;;;21.78;59.34;101185.75;7404311;19;1859;-54
2022/06/03 12:05:00;;;;;;;;;;;;;;;21.79;59.30;101200.91;7406458;19;1466;-54
2022/06/03 12:07:36;;;;;;;;;;;;;;;21.83;60.48;101196.94;7406336;19;1357;-54
2022/06/03 12:10:07;;;;;;;;;;;;;;;21.96;60.27;101193.09;7406765;19;1372;-54
2022/06/03 12:15:38;;;;;;;;;;;;;;;22.09;59.75;101177.47;7405848;19;1422;-55
2022/06/03 12:18:42;;;;;;;;;;;;;;;21.97;60.17;101184.03;7406824;19;1532;-55
2022/06/03 12:21:12;;;;;;;;;;;;;;;21.95;60.45;101156.41;7406910;19;1762;-55
2022/06/03 12:23:52;;;;;;;;;;;;;;;21.97;60.37;101149.88;7405601;19;1913;-55
2022/06/03 12:26:24;;;;;;;;;;;;;;;22.00;60.73;101160.38;7406987;19;1304;-56
2022/06/03 12:28:54;;;;;;;;;;;;;;;22.02;60.91;101134.13;7406073;19;1618;-56
2022/06/03 12:31:36;;;;;;;;;;;;;;;22.07;60.98;101147.16;7407330;19;1303;-55
2022/06/03 12:34:20;;;;;;;;;;;;;;;22.13;61.24;101148.41;7406334;19;1730;-56
2022/06/03 12:36:53;;;;;;;;;;;;;;;22.18;61.42;101155.06;7407286;19;977;-57
2022/06/03 12:39:23;;;;;;;;;;;;;;;22.21;61.08;101143.13;7404826;19;1469;-55
2022/06/03 12:42:00;;;;;;;;;;;;;;;22.14;61.24;101139.31;7404620;19;1850;-55
2022/06/03 12:44:43;;;;;;;;;;;;;;;22.16;61.20;101135.50;7406098;19;1371;-56
2022/06/03 12:47:26;;;;;;;;;;;;;;;22.17;61.27;101141.75;7403915;19;1387;-55
2022/06/03 12:49:58;;;;;;;;;;;;;;;22.26;61.55;101127.41;7406255;19;1358;-57
2022/06/03 12:52:42;;;;;;;;;;;;;;;22.43;61.20;101137.38;7406129;19;1391;-61
2022/06/03 12:55:13;;;;;;;;;;;;;;;22.42;61.14;101127.63;7403782;19;1505;-56
2022/06/03 12:57:48;;;;;;;;;;;;;;;22.39;61.48;101121.69;7405983;19;1827;-55
2022/06/03 13:00:18;;;;;;;;;;;;;;;22.38;61.93;101138.84;7406266;19;1378;-55
2022/06/03 13:02:51;;;;;;;;;;;;;;;22.38;61.92;101144.22;7403312;19;1846;-54
2022/06/03 13:05:38;;;;;;;;;;;;;;;22.31;62.27;101137.75;7405332;19;1631;-55
2022/06/03 13:08:08;;;;;;;;;;;;;;;22.31;62.16;101143.97;7404129;19;1679;-55
2022/06/03 13:10:57;;;;;;;;;;;;;;;22.38;62.27;101125.34;7404546;19;1753;-55
2022/06/03 13:13:43;;;;;;;;;;;;;;;22.42;62.30;101134.84;7405015;19;1679;-54
2022/06/03 13:16:38;;;;;;;;;;;;;;;22.43;62.42;101142.78;7404633;19;1699;-56
2022/06/03 13:19:22;;;;;;;;;;;;;;;22.56;62.51;101123.59;7405598;19;989;-56
2022/06/03 13:22:07;;;;;;;;;;;;;;;22.53;62.29;101131.94;7403365;19;1846;-55
2022/06/03 13:24:38;;;;;;;;;;;;;;;22.55;62.33;101124.56;7404869;19;1584;-56
2022/06/03 13:27:09;;;;;;;;;;;;;;;22.55;62.34;101119.19;7404400;19;1478;-56
2022/06/03 13:29:52;;;;;;;;;;;;;;;22.56;62.39;101126.28;7404050;19;1438;-55
2022/06/03 13:32:22;;;;;;;;;;;;;;;22.60;63.18;101119.59;7403614;19;1491;-71
2022/06/03 13:34:50;;;;;;;;;;;;;;;22.53;63.22;101123.03;7403846;19;1378;-58
2022/06/03 13:37:30;;;;;;;;;;;;;;;22.49;63.55;101113.56;7404078;19;1494;-57
2022/06/03 13:40:08;;;;;;;;;;;;;;;22.60;63.20;101108.81;7404471;19;1513;-56
2022/06/03 13:43:02;;;;;;;;;;;;;;;22.56;63.21;101128.97;7402009;19;1853;-56
2022/06/03 13:45:45;;;;;;;;;;;;;;;22.79;62.98;101104.28;7403612;19;1569;-55
2022/06/03 13:48:16;;;;;;;;;;;;;;;22.70;63.43;101115.97;7402670;19;1328;-55
2022/06/03 13:50:45;;;;;;;;;;;;;;;22.62;63.32;101125.66;7402493;19;1489;-56
2022/06/03 13:53:15;;;;;;;;;;;;;;;22.61;63.51;101118.56;7402572;19;1540;-56
2022/06/03 13:55:53;;;;;;;;;;;;;;;22.61;63.67;101110.47;7402377;19;1695;-55
2022/06/03 13:58:26;;;;;;;;;;;;;;;22.61;63.52;101129.34;7407936;19;1478;-55
2022/06/03 14:00:58;;;;;;;;;;;;;;;22.63;63.64;101118.44;7409419;19;1466;-62
2022/06/03 14:03:28;;;;;;;;;;;;;;;22.80;63.84;101111.34;7408217;19;1872;-71
2022/06/03 14:05:59;;;;;;;;;;;;;;;23.00;64.55;101112.94;7410288;19;1313;-58
2022/06/03 14:08:29;;;;;;;;;;;;;;;23.06;64.76;101111.50;7410368;19;1431;-69